Linden, Missouri
Current Conditions -  °F | °C
As of 6:52 AM on Saturday 25 Oct 2014 (Local Time) from KSGF Reporting Station
Clear Clear  
Wind Chill: 64°   Ceiling: Unl
Heat Index: 64°   Visibility: 10mi
Dew Point: 59°   Wind: 10mph
Humidity: 84%   Direction: 260°W
Pressure: 30.06"   Gusts: NA
Location:  37.1319°N, 93.0612°W
Report Text: KSGF 251152Z 26009KT 10SM CLR 18/15 A3006 RMK AO2 SLP173 T01780150 10183 20133 53002
Loading
Personal Weather Stations






























Interactive Weather Map
Tropical Storm Tracking
New forecast layout! Learn more

10-Day Weather Forecast

Advertisements
Track Severe Weather on mobile